Time;durP1;ratioP1;P1;durP2;ratioP2;P2;SDS_P1;SDS_P2;PMS_P1;PMS_P2;Temp;Humidity;BMP_temperature;BMP_pressure;BME280_temperature;BME280_humidity;BME280_pressure;Samples;Min_cycle;Max_cycle;Signal;HPM_P1;HPM_P2
2021/06/20 00:01:10;;;;;;;25.92;16.75;;;16.30;99.90;;;;;;5091955;28;20132;-58
2021/06/20 00:03:35;;;;;;;25.08;16.42;;;16.30;99.90;;;;;;5091714;28;20044;-58
2021/06/20 00:06:06;;;;;;;25.15;16.98;;;16.30;99.90;;;;;;5091800;28;20047;-58
2021/06/20 00:08:32;;;;;;;29.40;19.05;;;16.30;99.90;;;;;;5092124;28;20475;-59
2021/06/20 00:10:58;;;;;;;26.73;18.55;;;16.30;99.90;;;;;;5091793;28;20055;-59
2021/06/20 00:13:24;;;;;;;27.58;17.88;;;16.20;99.90;;;;;;5091772;28;20119;-58
2021/06/20 00:15:50;;;;;;;27.27;17.35;;;16.30;99.90;;;;;;5091693;28;20047;-59
2021/06/20 00:18:16;;;;;;;31.83;20.00;;;16.30;99.90;;;;;;5091981;28;20048;-59
2021/06/20 00:20:45;;;;;;;27.63;20.70;;;16.30;99.90;;;;;;5091909;28;20055;-59
2021/06/20 00:23:11;;;;;;;33.22;19.65;;;16.20;99.90;;;;;;5091657;28;20047;-58
2021/06/20 00:25:38;;;;;;;37.92;20.42;;;16.20;99.90;;;;;;5091540;28;20048;-58
2021/06/20 00:28:04;;;;;;;35.00;19.95;;;16.30;99.90;;;;;;5091578;28;20039;-58
2021/06/20 00:30:32;;;;;;;35.78;20.13;;;16.30;99.90;;;;;;5091538;28;20036;-58
2021/06/20 00:32:59;;;;;;;37.10;19.65;;;16.40;99.90;;;;;;5091756;28;20044;-58
2021/06/20 00:35:25;;;;;;;60.60;21.75;;;16.40;99.90;;;;;;5091692;28;20044;-58
2021/06/20 00:37:51;;;;;;;46.08;23.40;;;16.40;99.90;;;;;;5091707;28;20036;-59
2021/06/20 00:40:19;;;;;;;37.92;22.20;;;16.40;99.90;;;;;;5094413;28;20047;-58
2021/06/20 00:42:45;;;;;;;33.13;21.55;;;16.40;99.90;;;;;;5095557;28;20389;-58
2021/06/20 00:45:14;;;;;;;46.15;22.73;;;16.40;99.90;;;;;;5095370;28;20032;-58
2021/06/20 00:47:40;;;;;;;48.17;23.20;;;16.40;99.90;;;;;;5095693;28;20087;-59
2021/06/20 00:50:08;;;;;;;39.67;21.50;;;16.40;99.90;;;;;;5095471;28;20071;-58
2021/06/20 00:52:34;;;;;;;36.33;19.90;;;16.30;99.90;;;;;;5095289;28;20066;-58
2021/06/20 00:55:01;;;;;;;31.73;18.75;;;16.20;99.90;;;;;;5095416;28;20043;-59
2021/06/20 00:57:27;;;;;;;36.35;19.58;;;16.20;99.90;;;;;;5095224;28;20043;-59
2021/06/20 00:59:53;;;;;;;39.35;20.30;;;16.10;99.90;;;;;;5095131;28;20461;-58
2021/06/20 01:02:20;;;;;;;36.20;20.52;;;16.00;99.90;;;;;;5095122;28;20394;-59
2021/06/20 01:04:48;;;;;;;34.85;19.60;;;16.00;99.90;;;;;;5095112;28;20070;-59
2021/06/20 01:07:18;;;;;;;25.70;17.80;;;16.00;99.90;;;;;;5095329;28;20071;-59
2021/06/20 01:09:45;;;;;;;29.77;17.88;;;15.90;99.90;;;;;;5094928;28;20559;-58
2021/06/20 01:12:12;;;;;;;27.80;17.30;;;15.90;99.90;;;;;;5094931;28;20043;-58
2021/06/20 01:14:39;;;;;;;26.65;18.00;;;15.90;99.90;;;;;;5094859;28;20071;-58
2021/06/20 01:17:06;;;;;;;27.50;17.05;;;15.90;99.90;;;;;;5095052;28;20047;-58
2021/06/20 01:19:33;;;;;;;28.98;17.38;;;15.90;99.90;;;;;;5094933;28;20474;-59
2021/06/20 01:22:24;;;;;;;28.55;16.70;;;15.90;99.90;;;;;;5094813;28;20115;-58
2021/06/20 01:24:51;;;;;;;;;;;15.80;99.90;;;;;;5095132;28;20084;-58
2021/06/20 01:27:17;;;;;;;27.05;15.85;;;15.90;99.90;;;;;;5094625;28;20293;-58
2021/06/20 01:29:48;;;;;;;19.27;13.80;;;15.80;99.90;;;;;;5094611;28;20089;-58
2021/06/20 01:32:16;;;;;;;22.08;14.85;;;15.80;99.90;;;;;;5094752;28;20032;-59
2021/06/20 01:34:43;;;;;;;;;;;15.80;99.90;;;;;;5095074;28;20486;-58
2021/06/20 01:37:10;;;;;;;24.95;15.05;;;15.90;99.90;;;;;;5094399;28;19916;-59
2021/06/20 01:39:40;;;;;;;21.83;14.95;;;15.90;99.90;;;;;;5094656;28;20071;-58
2021/06/20 01:42:10;;;;;;;23.20;13.95;;;15.80;99.90;;;;;;5094546;28;20135;-58
2021/06/20 01:44:53;;;;;;;21.88;13.55;;;15.80;99.90;;;;;;5094303;28;20118;-59
2021/06/20 01:47:22;;;;;;;21.55;14.35;;;15.80;99.90;;;;;;5094270;28;20504;-59
2021/06/20 01:49:49;;;;;;;21.83;13.30;;;15.80;99.90;;;;;;5094165;28;20044;-58
2021/06/20 01:52:20;;;;;;;21.33;13.07;;;15.80;99.90;;;;;;5094486;28;20047;-59
2021/06/20 01:54:52;;;;;;;20.55;12.80;;;15.80;99.90;;;;;;5094185;28;20040;-59
2021/06/20 01:57:24;;;;;;;19.75;12.60;;;15.70;99.90;;;;;;5094217;28;20063;-58
2021/06/20 01:59:51;;;;;;;21.48;12.27;;;15.70;99.90;;;;;;5094208;28;20048;-59
2021/06/20 02:02:17;;;;;;;18.05;11.93;;;15.70;99.90;;;;;;5093984;28;20036;-59
2021/06/20 02:04:44;;;;;;;21.05;12.77;;;15.80;99.90;;;;;;5093832;28;20488;-58
2021/06/20 02:07:10;;;;;;;18.17;12.20;;;15.80;99.90;;;;;;5093941;28;20516;-59
2021/06/20 02:09:37;;;;;;;19.42;11.55;;;15.80;99.90;;;;;;5093965;28;20060;-58
2021/06/20 02:12:04;;;;;;;17.88;11.98;;;15.70;99.90;;;;;;5093764;28;20051;-58
2021/06/20 02:14:32;;;;;;;17.08;11.75;;;15.80;99.90;;;;;;5093848;28;20044;-59
2021/06/20 02:16:58;;;;;;;19.42;12.13;;;15.80;99.90;;;;;;5093578;28;20052;-58
2021/06/20 02:19:24;;;;;;;22.88;12.93;;;15.80;99.90;;;;;;5093928;28;20137;-59
2021/06/20 02:21:49;;;;;;;26.17;14.15;;;15.90;99.90;;;;;;5093728;28;20393;-59
2021/06/20 02:24:15;;;;;;;22.23;13.63;;;15.90;99.90;;;;;;5093498;28;20474;-59
2021/06/20 02:26:41;;;;;;;23.38;14.57;;;15.90;99.90;;;;;;5093387;28;20059;-58
2021/06/20 02:29:07;;;;;;;28.63;15.43;;;15.90;99.90;;;;;;5093501;28;20040;-59
2021/06/20 02:31:33;;;;;;;31.38;16.00;;;15.80;99.90;;;;;;5093330;28;20040;-59
2021/06/20 02:33:59;;;;;;;26.40;16.85;;;15.90;99.90;;;;;;5093576;28;20071;-58
2021/06/20 02:36:25;;;;;;;26.13;16.67;;;15.90;99.90;;;;;;5093405;28;20059;-59
2021/06/20 02:38:51;;;;;;;32.63;17.67;;;16.00;99.90;;;;;;5093336;28;20075;-58
2021/06/20 02:41:18;;;;;;;33.88;18.92;;;16.00;99.90;;;;;;5093280;28;20453;-59
2021/06/20 02:43:44;;;;;;;31.73;18.25;;;16.10;99.90;;;;;;5093046;28;20036;-59
2021/06/20 02:46:09;;;;;;;40.17;21.13;;;16.10;99.90;;;;;;5093103;28;20044;-60
2021/06/20 02:48:35;;;;;;;36.97;20.27;;;16.10;99.90;;;;;;5093195;28;20093;-58
2021/06/20 02:51:01;;;;;;;32.85;19.77;;;16.10;99.90;;;;;;5093255;28;20040;-58
2021/06/20 02:53:27;;;;;;;33.40;19.42;;;16.20;99.90;;;;;;5091932;28;20082;-58
2021/06/20 02:55:52;;;;;;;33.17;19.98;;;16.20;99.90;;;;;;5093128;28;20051;-59
2021/06/20 02:58:18;;;;;;;32.20;20.15;;;16.20;99.90;;;;;;5093134;28;20072;-58
2021/06/20 03:00:44;;;;;;;34.78;20.02;;;16.30;99.90;;;;;;5092987;28;20099;-58
2021/06/20 03:03:09;;;;;;;39.35;20.88;;;16.30;99.90;;;;;;5092402;28;20051;-58
2021/06/20 03:05:35;;;;;;;38.25;20.55;;;16.40;99.90;;;;;;5092741;28;20062;-59
2021/06/20 03:08:01;;;;;;;37.92;21.15;;;16.40;99.90;;;;;;5092799;28;20063;-59
2021/06/20 03:10:27;;;;;;;40.58;21.08;;;16.40;99.90;;;;;;5092801;28;20058;-58
2021/06/20 03:12:52;;;;;;;39.63;21.10;;;16.40;99.90;;;;;;5092916;28;20052;-58
2021/06/20 03:15:18;;;;;;;36.50;22.08;;;16.40;99.90;;;;;;5091281;28;20478;-58
2021/06/20 03:17:44;;;;;;;38.33;21.13;;;16.40;99.90;;;;;;5092607;28;20044;-58
2021/06/20 03:20:10;;;;;;;47.00;24.75;;;16.50;99.90;;;;;;5092659;28;20040;-58
2021/06/20 03:22:36;;;;;;;36.28;23.33;;;16.50;99.90;;;;;;5092446;28;20403;-58
2021/06/20 03:25:02;;;;;;;39.05;22.75;;;16.60;99.90;;;;;;5092405;28;20070;-58
2021/06/20 03:27:28;;;;;;;43.63;24.73;;;16.60;99.90;;;;;;5092387;28;20043;-58
2021/06/20 03:29:54;;;;;;;45.95;25.42;;;16.60;99.90;;;;;;5092204;28;20036;-58
2021/06/20 03:32:21;;;;;;;48.80;25.25;;;16.60;99.90;;;;;;5092302;28;20106;-58
2021/06/20 03:34:47;;;;;;;44.80;25.27;;;16.60;99.90;;;;;;5092315;28;20036;-58
2021/06/20 03:37:15;;;;;;;44.35;25.75;;;16.70;99.90;;;;;;5092298;28;20060;-59
2021/06/20 03:39:41;;;;;;;44.03;26.55;;;16.60;99.90;;;;;;5092253;28;20105;-58
2021/06/20 03:42:07;;;;;;;46.65;27.35;;;16.60;99.90;;;;;;5092266;28;20118;-58
2021/06/20 03:44:32;;;;;;;51.30;29.23;;;16.70;99.90;;;;;;5092010;28;20131;-59
2021/06/20 03:46:58;;;;;;;57.75;29.73;;;16.70;99.90;;;;;;5092371;28;20101;-58
2021/06/20 03:49:25;;;;;;;47.42;29.83;;;16.70;99.90;;;;;;5092404;28;20040;-58
2021/06/20 03:51:52;;;;;;;52.40;30.15;;;16.80;99.90;;;;;;5092205;28;20550;-59
2021/06/20 03:54:18;;;;;;;52.85;30.35;;;16.80;99.90;;;;;;5092261;28;20047;-58
2021/06/20 03:56:44;;;;;;;50.97;29.52;;;16.80;99.90;;;;;;5092003;28;20044;-58
2021/06/20 03:59:10;;;;;;;49.83;29.65;;;16.80;99.90;;;;;;5092056;28;20056;-58
2021/06/20 04:01:36;;;;;;;50.42;30.45;;;16.80;99.90;;;;;;5092099;28;20040;-58
2021/06/20 04:04:03;;;;;;;46.38;29.52;;;16.90;99.90;;;;;;5091852;28;20127;-58
2021/06/20 04:06:29;;;;;;;55.03;31.30;;;16.90;99.90;;;;;;5091890;28;20044;-58
2021/06/20 04:08:55;;;;;;;53.63;32.47;;;16.90;99.90;;;;;;5091855;28;20400;-58
2021/06/20 04:11:20;;;;;;;51.63;31.88;;;17.00;99.90;;;;;;5091862;28;20044;-58
2021/06/20 04:13:46;;;;;;;51.15;31.35;;;17.00;99.90;;;;;;5092023;28;20055;-58
2021/06/20 04:16:12;;;;;;;50.10;31.20;;;17.00;99.90;;;;;;5096230;28;20443;-58
2021/06/20 04:18:37;;;;;;;55.25;32.17;;;17.10;99.90;;;;;;5094652;28;20135;-58
2021/06/20 04:21:03;;;;;;;50.97;30.13;;;17.10;99.90;;;;;;5095910;28;20127;-58
2021/06/20 04:23:29;;;;;;;48.28;30.85;;;17.10;99.90;;;;;;5095947;28;20032;-58
2021/06/20 04:25:55;;;;;;;49.17;29.35;;;17.20;99.90;;;;;;5095691;28;20048;-58
2021/06/20 04:28:21;;;;;;;47.97;31.10;;;17.20;99.90;;;;;;5096068;28;20040;-58
2021/06/20 04:30:52;;;;;;;45.03;29.92;;;17.20;99.90;;;;;;5095920;28;20040;-58
2021/06/20 04:33:18;;;;;;;43.05;30.08;;;17.20;99.90;;;;;;5095877;28;20040;-58
2021/06/20 04:35:44;;;;;;;50.22;31.25;;;17.30;99.90;;;;;;5095740;28;20047;-58
2021/06/20 04:38:11;;;;;;;45.00;30.55;;;17.30;99.90;;;;;;5095731;28;20379;-58
2021/06/20 04:40:38;;;;;;;46.20;29.90;;;17.30;99.90;;;;;;5095548;28;20036;-58
2021/06/20 04:43:07;;;;;;;43.85;28.88;;;17.30;99.90;;;;;;5095617;28;20036;-58
2021/06/20 04:45:33;;;;;;;44.90;29.52;;;17.40;99.90;;;;;;5095677;28;20044;-58
2021/06/20 04:47:59;;;;;;;45.25;30.88;;;17.30;99.90;;;;;;5095316;28;20397;-58
2021/06/20 04:50:25;;;;;;;41.92;29.35;;;17.40;99.90;;;;;;5095486;28;20031;-58
2021/06/20 04:52:51;;;;;;;52.60;31.67;;;17.40;99.90;;;;;;5095421;28;20140;-58
2021/06/20 04:55:16;;;;;;;50.10;29.98;;;17.40;99.90;;;;;;5095309;28;20168;-58
2021/06/20 04:57:42;;;;;;;49.72;30.27;;;17.50;99.90;;;;;;5095401;28;20481;-58
2021/06/20 05:00:10;;;;;;;49.55;32.10;;;17.50;99.90;;;;;;5095405;28;20478;-59
2021/06/20 05:02:36;;;;;;;51.03;33.20;;;17.50;99.90;;;;;;5095322;28;20059;-58
2021/06/20 05:05:04;;;;;;;43.53;31.13;;;17.50;99.90;;;;;;5095167;28;20538;-58
2021/06/20 05:07:30;;;;;;;47.20;31.67;;;17.50;99.90;;;;;;5095099;28;20040;-58
2021/06/20 05:09:55;;;;;;;47.67;31.50;;;17.50;99.90;;;;;;5095270;28;20073;-58
2021/06/20 05:12:21;;;;;;;49.17;32.47;;;17.60;99.90;;;;;;5095497;28;20935;-58
2021/06/20 05:14:47;;;;;;;48.60;31.75;;;17.60;99.90;;;;;;5095006;28;20066;-58
2021/06/20 05:17:15;;;;;;;47.00;32.58;;;17.60;99.90;;;;;;5094869;28;20071;-58
2021/06/20 05:19:41;;;;;;;49.70;33.13;;;17.60;99.90;;;;;;5095020;28;20047;-58
2021/06/20 05:22:11;;;;;;;43.72;30.77;;;17.70;99.90;;;;;;5094764;28;20488;-58
2021/06/20 05:24:38;;;;;;;51.78;34.50;;;17.60;99.90;;;;;;5094381;28;20043;-58
2021/06/20 05:27:04;;;;;;;52.42;35.92;;;17.70;99.90;;;;;;5095100;28;20052;-58
2021/06/20 05:29:30;;;;;;;51.60;33.53;;;17.60;99.90;;;;;;5095076;28;20040;-59
2021/06/20 05:31:56;;;;;;;50.60;34.85;;;17.70;99.90;;;;;;5094794;28;20466;-58
2021/06/20 05:34:21;;;;;;;52.05;33.83;;;17.70;99.90;;;;;;5094581;28;20395;-58
2021/06/20 05:36:48;;;;;;;49.30;34.85;;;17.70;99.90;;;;;;5094457;28;20036;-58
2021/06/20 05:39:15;;;;;;;51.80;35.60;;;17.80;99.90;;;;;;5094642;28;20055;-58
2021/06/20 05:41:40;;;;;;;49.70;34.63;;;17.80;99.90;;;;;;5094463;28;20122;-58
2021/06/20 05:44:06;;;;;;;47.08;32.75;;;17.90;99.90;;;;;;5094446;28;20127;-58
2021/06/20 05:46:33;;;;;;;50.42;35.45;;;17.90;99.90;;;;;;5094285;28;20528;-58
2021/06/20 05:48:59;;;;;;;52.30;35.25;;;18.00;99.90;;;;;;5094261;28;20085;-58
2021/06/20 05:51:24;;;;;;;49.38;33.72;;;18.00;99.90;;;;;;5094224;28;20435;-58
2021/06/20 05:53:50;;;;;;;47.80;33.70;;;18.10;99.90;;;;;;5094328;28;20044;-58
2021/06/20 05:56:16;;;;;;;48.28;34.25;;;18.10;99.90;;;;;;5094165;28;20135;-58
2021/06/20 05:58:41;;;;;;;51.17;34.85;;;18.20;99.90;;;;;;5094306;28;20442;-58
2021/06/20 06:01:07;;;;;;;51.47;34.40;;;18.20;99.90;;;;;;5094054;28;20055;-58
2021/06/20 06:03:34;;;;;;;45.78;32.63;;;18.30;99.90;;;;;;5093966;28;20106;-58
2021/06/20 06:06:01;;;;;;;48.00;34.58;;;18.30;99.90;;;;;;5093842;28;20131;-58
2021/06/20 06:08:27;;;;;;;43.85;32.33;;;18.30;99.90;;;;;;5093934;28;20190;-59
2021/06/20 06:10:53;;;;;;;48.28;35.47;;;18.40;99.90;;;;;;5092801;28;20142;-59
2021/06/20 06:13:18;;;;;;;45.47;34.50;;;18.50;99.90;;;;;;5093724;28;20081;-58
2021/06/20 06:15:44;;;;;;;46.42;34.75;;;18.50;99.90;;;;;;5093771;28;20070;-59
2021/06/20 06:18:10;;;;;;;49.70;34.58;;;18.60;99.90;;;;;;5092763;28;20097;-59
2021/06/20 06:20:36;;;;;;;48.25;34.80;;;18.60;99.90;;;;;;5092773;28;20414;-59
2021/06/20 06:23:02;;;;;;;41.78;33.28;;;18.60;99.90;;;;;;5093756;28;20071;-59
2021/06/20 06:25:27;;;;;;;47.13;34.63;;;18.70;99.90;;;;;;5093375;28;20135;-57
2021/06/20 06:27:53;;;;;;;45.50;33.28;;;18.70;99.90;;;;;;5093258;28;20040;-58
2021/06/20 06:30:20;;;;;;;40.65;31.13;;;18.80;99.90;;;;;;5093688;28;20046;-58
2021/06/20 06:32:46;;;;;;;37.88;29.23;;;18.80;99.90;;;;;;5092821;28;20114;-57
2021/06/20 06:35:13;;;;;;;38.17;29.17;;;18.80;99.90;;;;;;5090449;28;20139;-58
2021/06/20 06:37:40;;;;;;;32.28;25.45;;;18.70;99.90;;;;;;5092464;28;20067;-58
2021/06/20 06:40:08;;;;;;;29.70;23.42;;;18.70;99.90;;;;;;5089345;28;20040;-58
2021/06/20 06:42:34;;;;;;;31.17;23.58;;;18.70;99.90;;;;;;5093114;28;20036;-59
2021/06/20 06:45:00;;;;;;;24.05;20.30;;;18.70;99.90;;;;;;5093094;28;20044;-58
2021/06/20 06:47:25;;;;;;;21.55;18.75;;;18.60;99.90;;;;;;5092853;28;20093;-58
2021/06/20 06:49:52;;;;;;;26.42;21.00;;;18.60;99.90;;;;;;5093085;28;20040;-58
2021/06/20 06:52:18;;;;;;;22.30;17.75;;;18.50;99.90;;;;;;5091048;28;20048;-59
2021/06/20 06:54:51;;;;;;;23.70;17.55;;;18.50;99.90;;;;;;5092664;28;20036;-58
2021/06/20 06:57:18;;;;;;;17.38;14.18;;;18.50;99.90;;;;;;5092475;28;20089;-58
2021/06/20 06:59:44;;;;;;;16.52;12.35;;;18.40;99.90;;;;;;5092910;28;20048;-58
2021/06/20 07:02:10;;;;;;;14.20;11.02;;;18.70;99.90;;;;;;5092752;28;20090;-58
2021/06/20 07:04:36;;;;;;;17.48;11.75;;;18.80;99.90;;;;;;5092660;28;20047;-58
2021/06/20 07:07:01;;;;;;;13.68;10.35;;;19.00;99.90;;;;;;5092668;28;20114;-58
2021/06/20 07:09:27;;;;;;;12.00;9.15;;;19.00;99.90;;;;;;5091342;28;20115;-58
2021/06/20 07:11:53;;;;;;;7.63;6.03;;;19.00;99.90;;;;;;5091168;28;20048;-59
2021/06/20 07:14:19;;;;;;;7.07;4.95;;;18.90;99.90;;;;;;5092687;28;20496;-58
2021/06/20 07:16:44;;;;;;;8.20;4.55;;;18.80;99.90;;;;;;5092626;28;20083;-59
2021/06/20 07:19:10;;;;;;;5.55;3.90;;;18.70;99.90;;;;;;5092385;28;20040;-59
2021/06/20 07:21:36;;;;;;;5.65;4.10;;;18.70;99.90;;;;;;5092580;28;20044;-59
2021/06/20 07:24:03;;;;;;;4.28;3.60;;;18.90;99.90;;;;;;5092597;28;20065;-58
2021/06/20 07:26:29;;;;;;;4.80;3.50;;;18.90;99.90;;;;;;5092199;28;20520;-61
2021/06/20 07:28:56;;;;;;;4.93;3.17;;;18.90;99.90;;;;;;5092423;28;20068;-59
2021/06/20 07:31:22;;;;;;;4.75;3.10;;;19.10;99.90;;;;;;5092376;28;20061;-58
2021/06/20 07:33:48;;;;;;;3.70;2.67;;;19.30;99.90;;;;;;5092289;28;20071;-59
2021/06/20 07:36:15;;;;;;;3.25;2.65;;;19.30;99.90;;;;;;5092440;28;20067;-58
2021/06/20 07:38:42;;;;;;;3.97;2.58;;;19.30;99.90;;;;;;5092167;28;20036;-58
2021/06/20 07:41:08;;;;;;;5.85;2.22;;;19.30;99.90;;;;;;5090989;28;20043;-58
2021/06/20 07:43:35;;;;;;;5.97;2.35;;;19.20;99.90;;;;;;5092220;28;20052;-58
2021/06/20 07:46:00;;;;;;;4.35;2.78;;;19.10;99.90;;;;;;5092202;28;20163;-59
2021/06/20 07:48:27;;;;;;;4.95;2.17;;;19.10;99.90;;;;;;5092357;28;20155;-58
2021/06/20 07:50:53;;;;;;;3.83;1.80;;;19.20;99.90;;;;;;5092262;28;20509;-58
2021/06/20 07:53:19;;;;;;;4.63;2.20;;;19.20;99.90;;;;;;5092066;28;20036;-59
2021/06/20 07:55:45;;;;;;;3.60;1.83;;;19.40;99.90;;;;;;5092085;28;20477;-58
2021/06/20 07:58:10;;;;;;;4.22;1.98;;;19.50;99.90;;;;;;5091921;28;20103;-58
2021/06/20 08:00:36;;;;;;;3.42;1.73;;;19.60;99.90;;;;;;5091919;28;20123;-58
2021/06/20 08:03:02;;;;;;;2.47;1.80;;;19.70;99.90;;;;;;5092013;28;20139;-58
2021/06/20 08:05:28;;;;;;;3.42;1.58;;;19.80;99.90;;;;;;5092024;28;20044;-58
2021/06/20 08:07:53;;;;;;;4.53;1.98;;;19.80;99.90;;;;;;5091895;28;20148;-59
2021/06/20 08:10:19;;;;;;;3.72;1.90;;;19.70;99.90;;;;;;5091829;28;20046;-58
2021/06/20 08:12:45;;;;;;;5.70;2.03;;;19.80;99.90;;;;;;5091860;28;20077;-59
2021/06/20 08:15:11;;;;;;;4.88;1.80;;;19.80;99.90;;;;;;5091695;28;20040;-58
2021/06/20 08:17:37;;;;;;;4.78;2.67;;;19.70;99.90;;;;;;5091615;28;20043;-59
2021/06/20 08:20:06;;;;;;;5.35;2.00;;;19.70;99.90;;;;;;5091682;28;20044;-58
2021/06/20 08:22:31;;;;;;;;;;;19.60;99.90;;;;;;5092346;28;20047;-59
2021/06/20 08:24:57;;;;;;;4.70;2.38;;;19.60;99.90;;;;;;5091629;28;19916;-59
2021/06/20 08:27:23;;;;;;;4.25;2.05;;;19.60;99.90;;;;;;5091474;28;20056;-58
2021/06/20 08:29:53;;;;;;;5.63;2.03;;;19.50;99.90;;;;;;5091547;28;20043;-59
2021/06/20 08:32:19;;;;;;;6.05;1.98;;;19.50;99.90;;;;;;5091728;28;20043;-59
2021/06/20 08:34:44;;;;;;;4.70;2.00;;;19.50;99.90;;;;;;5091498;28;20040;-58
2021/06/20 08:37:10;;;;;;;3.92;1.67;;;19.50;99.90;;;;;;5091501;28;20486;-58
2021/06/20 08:39:36;;;;;;;5.57;2.28;;;19.50;99.90;;;;;;5091475;28;20101;-59
2021/06/20 08:42:02;;;;;;;4.07;1.88;;;19.50;99.90;;;;;;5091533;28;20051;-59
2021/06/20 08:44:31;;;;;;;4.68;1.83;;;19.40;99.90;;;;;;5091470;28;20040;-59
2021/06/20 08:46:58;;;;;;;4.13;1.73;;;19.60;99.90;;;;;;5091239;28;20097;-58
2021/06/20 08:49:28;;;;;;;6.40;2.30;;;19.80;99.90;;;;;;5091733;28;20036;-58
2021/06/20 08:51:55;;;;;;;7.22;2.00;;;20.00;99.90;;;;;;5091649;28;20062;-58
2021/06/20 08:54:22;;;;;;;5.90;1.88;;;20.10;99.90;;;;;;5091013;28;20036;-58
2021/06/20 08:56:50;;;;;;;2.88;1.60;;;20.20;99.90;;;;;;5090183;28;20474;-57
2021/06/20 08:59:18;;;;;;;4.68;1.63;;;20.10;99.90;;;;;;5090461;28;20122;-57
2021/06/20 09:01:43;;;;;;;4.40;1.53;;;20.00;99.90;;;;;;5093663;28;20085;-57
2021/06/20 09:04:10;;;;;;;6.90;1.50;;;20.00;99.90;;;;;;5094638;28;20302;-58
2021/06/20 09:06:36;;;;;;;3.47;1.45;;;20.00;99.90;;;;;;5095460;28;20071;-57
2021/06/20 09:09:05;;;;;;;1.25;1.00;;;20.20;99.90;;;;;;5095091;28;20040;-58
2021/06/20 09:11:42;;;;;;;2.72;1.23;;;20.10;99.90;;;;;;5095112;28;20032;-57
2021/06/20 09:14:09;;;;;;;6.07;1.63;;;20.10;99.90;;;;;;5095355;28;20044;-57
2021/06/20 09:16:52;;;;;;;2.75;1.60;;;20.10;99.90;;;;;;5095098;28;20075;-58
2021/06/20 09:19:28;;;;;;;2.08;1.35;;;20.10;99.90;;;;;;5095374;28;20085;-58
2021/06/20 09:21:55;;;;;;;3.15;1.20;;;20.10;99.90;;;;;;5094950;28;20044;-57
2021/06/20 09:24:22;;;;;;;7.00;1.70;;;20.00;99.90;;;;;;5094207;28;20786;-57
2021/06/20 09:26:53;;;;;;;7.22;1.40;;;20.10;99.90;;;;;;5094573;28;20076;-57
2021/06/20 09:29:29;;;;;;;2.53;1.52;;;20.10;99.90;;;;;;5094506;28;20032;-58
2021/06/20 09:31:56;;;;;;;3.15;0.93;;;20.40;99.90;;;;;;5094393;28;20036;-57
2021/06/20 09:34:22;;;;;;;3.35;1.05;;;20.50;99.90;;;;;;5092181;28;20036;-58
2021/06/20 09:36:58;;;;;;;3.00;1.10;;;20.50;99.90;;;;;;5092584;28;20044;-58
2021/06/20 09:39:25;;;;;;;6.53;1.02;;;20.70;99.90;;;;;;5094477;28;20039;-58
2021/06/20 09:42:01;;;;;;;2.83;1.35;;;20.70;99.90;;;;;;5094228;28;20048;-58
2021/06/20 09:44:41;;;;;;;4.75;1.20;;;20.70;99.90;;;;;;5094415;28;20044;-57
2021/06/20 09:47:12;;;;;;;3.90;1.42;;;20.60;99.90;;;;;;5094640;28;20040;-58
2021/06/20 09:49:39;;;;;;;1.90;0.85;;;20.60;99.90;;;;;;5094353;28;20478;-57
2021/06/20 09:52:05;;;;;;;2.47;1.15;;;20.80;99.90;;;;;;5094280;28;20041;-57
2021/06/20 09:54:33;;;;;;;2.35;0.77;;;20.80;99.90;;;;;;5094196;28;20582;-57
2021/06/20 09:57:00;;;;;;;3.03;1.08;;;21.00;99.90;;;;;;5094212;28;20044;-58
2021/06/20 09:59:31;;;;;;;4.05;1.52;;;21.00;99.90;;;;;;5094074;28;20135;-58
2021/06/20 10:02:12;;;;;;;1.90;1.08;;;21.00;99.90;;;;;;5091303;28;20434;-59
2021/06/20 10:04:40;;;;;;;3.95;0.90;;;20.80;99.90;;;;;;5092126;28;20042;-58
2021/06/20 10:07:08;;;;;;;12.02;1.10;;;20.80;99.90;;;;;;5093759;28;20158;-57
2021/06/20 10:09:36;;;;;;;1.63;0.90;;;20.70;99.90;;;;;;5093356;28;20057;-57
2021/06/20 10:12:03;;;;;;;2.95;1.20;;;20.70;99.90;;;;;;5091091;28;20097;-57
2021/06/20 10:14:30;;;;;;;3.83;1.05;;;20.60;99.90;;;;;;5092701;28;20050;-58
2021/06/20 10:17:01;;;;;;;1.75;0.80;;;20.80;99.90;;;;;;5094178;28;20052;-58
2021/06/20 10:19:29;;;;;;;3.10;0.85;;;20.80;99.90;;;;;;5093902;28;20044;-57
2021/06/20 10:22:03;;;;;;;3.75;1.17;;;20.80;99.90;;;;;;5093757;28;20061;-57
2021/06/20 10:24:29;;;;;;;3.10;1.27;;;21.00;99.90;;;;;;5093272;28;20043;-57
2021/06/20 10:26:58;;;;;;;4.65;1.10;;;21.00;99.90;;;;;;5093717;28;20147;-58
2021/06/20 10:29:27;;;;;;;2.25;0.80;;;20.90;99.90;;;;;;5093932;28;20119;-57
2021/06/20 10:31:53;;;;;;;;;;;20.80;99.90;;;;;;5094398;28;20040;-58
2021/06/20 10:34:22;;;;;;;2.60;0.80;;;20.80;99.90;;;;;;5093702;28;19915;-58
2021/06/20 10:36:49;;;;;;;;;;;20.70;99.90;;;;;;5094102;28;20078;-58
2021/06/20 10:39:15;;;;;;;1.58;0.70;;;20.70;99.90;;;;;;5093772;28;19927;-59
2021/06/20 10:41:41;;;;;;;2.53;0.70;;;20.60;99.90;;;;;;5093437;28;20036;-58
2021/06/20 10:44:07;;;;;;;3.88;0.95;;;20.60;99.90;;;;;;5092701;28;20044;-58
2021/06/20 10:46:36;;;;;;;1.20;0.57;;;20.60;99.90;;;;;;5093102;28;20044;-58
2021/06/20 10:49:13;;;;;;;3.15;0.80;;;20.70;99.90;;;;;;5092294;28;20401;-58
2021/06/20 10:51:39;;;;;;;6.60;0.80;;;20.70;99.90;;;;;;5093398;28;20374;-57
2021/06/20 10:54:05;;;;;;;0.95;0.57;;;20.70;99.90;;;;;;5093527;28;20052;-56
2021/06/20 10:56:31;;;;;;;4.05;1.30;;;20.80;99.90;;;;;;5093313;28;20415;-56
2021/06/20 10:58:57;;;;;;;2.13;0.60;;;20.90;99.90;;;;;;5092908;28;20050;-56
2021/06/20 11:01:27;;;;;;;3.10;0.90;;;21.00;99.90;;;;;;5092920;28;20062;-56
2021/06/20 11:03:52;;;;;;;6.07;0.93;;;21.00;99.90;;;;;;5092839;28;20481;-56
2021/06/20 11:06:20;;;;;;;5.68;0.88;;;21.00;99.90;;;;;;5092998;28;20044;-56
2021/06/20 11:09:05;;;;;;;0.55;0.38;;;21.20;99.90;;;;;;5092820;28;20469;-55
2021/06/20 11:11:51;;;;;;;4.65;1.10;;;21.20;99.90;;;;;;5092801;28;20114;-56
2021/06/20 11:14:19;;;;;;;3.58;0.80;;;21.10;99.90;;;;;;5092824;28;20112;-56
2021/06/20 11:16:47;;;;;;;2.38;1.00;;;21.20;99.90;;;;;;5092804;28;20044;-56
2021/06/20 11:19:16;;;;;;;;;;;21.10;99.90;;;;;;5093038;28;20052;-55
2021/06/20 11:21:56;;;;;;;2.35;1.35;;;21.10;99.90;;;;;;5092612;28;20335;-56
2021/06/20 11:24:34;;;;;;;3.58;0.98;;;21.00;99.90;;;;;;5092243;28;20118;-56
2021/06/20 11:27:04;;;;;;;6.40;1.33;;;21.00;99.90;;;;;;5091258;28;20052;-56
2021/06/20 11:29:53;;;;;;;2.45;0.90;;;21.10;99.90;;;;;;5092641;28;20044;-55
2021/06/20 11:32:25;;;;;;;7.60;2.30;;;21.30;99.90;;;;;;5092729;28;20093;-56
2021/06/20 11:35:04;;;;;;;4.82;1.15;;;21.40;99.90;;;;;;5092729;28;20184;-56
2021/06/20 11:37:39;;;;;;;4.18;1.55;;;21.30;99.90;;;;;;5092613;28;20054;-55
2021/06/20 11:40:08;;;;;;;3.85;1.75;;;21.20;99.90;;;;;;5092761;28;20096;-56
2021/06/20 11:42:39;;;;;;;2.10;1.13;;;21.10;99.90;;;;;;5092132;28;20035;-56
2021/06/20 11:45:08;;;;;;;4.05;1.33;;;21.00;99.90;;;;;;5092474;28;20112;-56
2021/06/20 11:47:47;;;;;;;5.35;1.45;;;20.90;99.90;;;;;;5092391;28;20051;-56
2021/06/20 11:50:17;;;;;;;2.60;1.02;;;20.80;99.90;;;;;;5092514;28;20055;-56
2021/06/20 11:52:46;;;;;;;2.95;1.10;;;20.80;99.90;;;;;;5092406;28;20048;-56
2021/06/20 11:55:19;;;;;;;;;;;20.70;99.90;;;;;;5091811;28;20052;-55
2021/06/20 11:57:46;;;;;;;4.43;0.98;;;20.70;99.90;;;;;;5092356;28;19916;-56
2021/06/20 12:00:19;;;;;;;5.18;1.35;;;20.70;99.90;;;;;;5092128;28;20048;-56
2021/06/20 12:02:46;;;;;;;5.40;1.30;;;20.80;99.90;;;;;;5092093;28;20040;-56
2021/06/20 12:05:16;;;;;;;6.77;1.57;;;20.80;99.90;;;;;;5092128;28;20044;-56
2021/06/20 12:07:43;;;;;;;4.75;1.10;;;20.90;99.90;;;;;;5092307;28;20040;-57
2021/06/20 12:10:13;;;;;;;8.15;1.70;;;20.80;99.90;;;;;;5092110;28;20086;-56
2021/06/20 12:12:40;;;;;;;3.63;1.00;;;20.70;99.90;;;;;;5092056;28;20059;-56
2021/06/20 12:15:07;;;;;;;4.57;1.30;;;20.70;99.90;;;;;;5092137;28;20055;-57
2021/06/20 12:17:32;;;;;;;4.68;1.27;;;20.60;99.90;;;;;;5092299;28;20224;-56
2021/06/20 12:19:58;;;;;;;7.03;1.08;;;20.40;99.90;;;;;;5091803;28;20055;-56
2021/06/20 12:22:25;;;;;;;6.38;1.83;;;20.40;99.90;;;;;;5091641;28;20051;-57
2021/06/20 12:25:00;;;;;;;8.55;1.15;;;20.40;99.90;;;;;;5091503;28;20040;-56
2021/06/20 12:27:38;;;;;;;4.53;1.20;;;20.30;99.90;;;;;;5091570;28;20139;-57
2021/06/20 12:30:17;;;;;;;6.57;1.55;;;20.20;99.90;;;;;;5091719;28;20038;-57
2021/06/20 12:32:45;;;;;;;4.45;1.30;;;20.20;99.90;;;;;;5091960;28;20048;-57
2021/06/20 12:35:31;;;;;;;6.05;2.33;;;20.10;99.90;;;;;;5092960;28;20447;-57
2021/06/20 12:37:57;;;;;;;3.67;1.08;;;20.10;99.90;;;;;;5095477;28;20032;-57
2021/06/20 12:40:28;;;;;;;3.65;1.10;;;20.10;99.90;;;;;;5095725;28;20396;-57